sensor_id;sensor_type;location;lat;lon;timestamp;temperature;humidity
7472;DHT22;3777;48.722;8.110;2023-07-16T00:01:00;22.30;99.90
7472;DHT22;3777;48.722;8.110;2023-07-16T00:03:27;22.30;99.90
7472;DHT22;3777;48.722;8.110;2023-07-16T00:05:54;22.20;99.90
7472;DHT22;3777;48.722;8.110;2023-07-16T00:08:22;22.20;99.90
7472;DHT22;3777;48.722;8.110;2023-07-16T00:10:55;22.20;99.90
7472;DHT22;3777;48.722;8.110;2023-07-16T00:13:22;22.20;99.90
7472;DHT22;3777;48.722;8.110;2023-07-16T00:15:50;22.20;99.90
7472;DHT22;3777;48.722;8.110;2023-07-16T00:18:17;22.20;99.90
7472;DHT22;3777;48.722;8.110;2023-07-16T00:20:44;22.20;99.90
7472;DHT22;3777;48.722;8.110;2023-07-16T00:23:11;22.20;99.90
7472;DHT22;3777;48.722;8.110;2023-07-16T00:25:38;22.30;99.90
7472;DHT22;3777;48.722;8.110;2023-07-16T00:28:05;22.30;99.90
7472;DHT22;3777;48.722;8.110;2023-07-16T00:30:32;22.30;99.90
7472;DHT22;3777;48.722;8.110;2023-07-16T00:33:00;22.30;99.90
7472;DHT22;3777;48.722;8.110;2023-07-16T00:35:27;22.40;99.90
7472;DHT22;3777;48.722;8.110;2023-07-16T00:37:54;22.30;99.90
7472;DHT22;3777;48.722;8.110;2023-07-16T00:40:21;22.30;99.90
7472;DHT22;3777;48.722;8.110;2023-07-16T00:42:48;22.40;99.90
7472;DHT22;3777;48.722;8.110;2023-07-16T00:45:15;22.30;99.90
7472;DHT22;3777;48.722;8.110;2023-07-16T00:47:43;22.30;99.90
7472;DHT22;3777;48.722;8.110;2023-07-16T00:50:11;22.10;99.90
7472;DHT22;3777;48.722;8.110;2023-07-16T00:52:39;22.10;99.90
7472;DHT22;3777;48.722;8.110;2023-07-16T00:55:08;22.00;99.90
7472;DHT22;3777;48.722;8.110;2023-07-16T00:57:35;22.00;99.90
7472;DHT22;3777;48.722;8.110;2023-07-16T01:00:03;21.90;99.90
7472;DHT22;3777;48.722;8.110;2023-07-16T01:02:30;21.90;99.90
7472;DHT22;3777;48.722;8.110;2023-07-16T01:04:57;21.90;99.90
7472;DHT22;3777;48.722;8.110;2023-07-16T01:07:27;21.90;99.90
7472;DHT22;3777;48.722;8.110;2023-07-16T01:09:57;21.90;99.90
7472;DHT22;3777;48.722;8.110;2023-07-16T01:12:25;21.90;99.90
7472;DHT22;3777;48.722;8.110;2023-07-16T01:14:54;21.80;99.90
7472;DHT22;3777;48.722;8.110;2023-07-16T01:17:23;21.80;99.90
7472;DHT22;3777;48.722;8.110;2023-07-16T01:19:49;21.80;99.90
7472;DHT22;3777;48.722;8.110;2023-07-16T01:23:00;21.70;99.90
7472;DHT22;3777;48.722;8.110;2023-07-16T01:25:55;21.50;99.90
7472;DHT22;3777;48.722;8.110;2023-07-16T01:28:45;21.30;99.90
7472;DHT22;3777;48.722;8.110;2023-07-16T01:31:18;21.20;99.90
7472;DHT22;3777;48.722;8.110;2023-07-16T01:33:47;21.20;99.90
7472;DHT22;3777;48.722;8.110;2023-07-16T01:36:16;21.20;99.90
7472;DHT22;3777;48.722;8.110;2023-07-16T01:38:44;21.10;99.90
7472;DHT22;3777;48.722;8.110;2023-07-16T01:41:11;21.00;99.90
7472;DHT22;3777;48.722;8.110;2023-07-16T01:43:38;21.00;99.90
7472;DHT22;3777;48.722;8.110;2023-07-16T01:46:05;21.00;99.90
7472;DHT22;3777;48.722;8.110;2023-07-16T01:48:35;21.00;99.90
7472;DHT22;3777;48.722;8.110;2023-07-16T01:51:03;21.00;99.90
7472;DHT22;3777;48.722;8.110;2023-07-16T01:53:29;21.00;99.90
7472;DHT22;3777;48.722;8.110;2023-07-16T01:55:57;21.10;99.90
7472;DHT22;3777;48.722;8.110;2023-07-16T01:58:24;21.10;99.90
7472;DHT22;3777;48.722;8.110;2023-07-16T02:00:51;21.10;99.90
7472;DHT22;3777;48.722;8.110;2023-07-16T02:03:18;21.10;99.90
7472;DHT22;3777;48.722;8.110;2023-07-16T02:05:46;21.10;99.90
7472;DHT22;3777;48.722;8.110;2023-07-16T02:08:14;21.10;99.90
7472;DHT22;3777;48.722;8.110;2023-07-16T02:10:41;20.90;99.90
7472;DHT22;3777;48.722;8.110;2023-07-16T02:13:08;20.80;99.90
7472;DHT22;3777;48.722;8.110;2023-07-16T02:15:35;20.60;99.90
7472;DHT22;3777;48.722;8.110;2023-07-16T02:18:02;20.60;99.90
7472;DHT22;3777;48.722;8.110;2023-07-16T02:20:28;20.50;99.90
7472;DHT22;3777;48.722;8.110;2023-07-16T02:22:57;20.40;99.90
7472;DHT22;3777;48.722;8.110;2023-07-16T02:25:24;20.40;99.90
7472;DHT22;3777;48.722;8.110;2023-07-16T02:27:51;20.40;99.90
7472;DHT22;3777;48.722;8.110;2023-07-16T02:30:18;20.20;99.90
7472;DHT22;3777;48.722;8.110;2023-07-16T02:32:45;20.00;99.90
7472;DHT22;3777;48.722;8.110;2023-07-16T02:35:12;19.90;99.90
7472;DHT22;3777;48.722;8.110;2023-07-16T02:37:39;19.80;99.90
7472;DHT22;3777;48.722;8.110;2023-07-16T02:40:08;19.80;99.90
7472;DHT22;3777;48.722;8.110;2023-07-16T02:42:35;19.70;99.90
7472;DHT22;3777;48.722;8.110;2023-07-16T02:45:03;19.80;99.90
7472;DHT22;3777;48.722;8.110;2023-07-16T02:47:30;19.90;99.90
7472;DHT22;3777;48.722;8.110;2023-07-16T02:49:57;19.80;99.90
7472;DHT22;3777;48.722;8.110;2023-07-16T02:52:24;19.70;99.90
7472;DHT22;3777;48.722;8.110;2023-07-16T02:54:51;19.70;99.90
7472;DHT22;3777;48.722;8.110;2023-07-16T02:57:20;19.80;99.90
7472;DHT22;3777;48.722;8.110;2023-07-16T02:59:48;19.70;99.90
7472;DHT22;3777;48.722;8.110;2023-07-16T03:02:15;19.80;99.90
7472;DHT22;3777;48.722;8.110;2023-07-16T03:04:42;19.90;99.90
7472;DHT22;3777;48.722;8.110;2023-07-16T03:07:09;20.00;99.90
7472;DHT22;3777;48.722;8.110;2023-07-16T03:09:36;20.10;99.90
7472;DHT22;3777;48.722;8.110;2023-07-16T03:12:03;20.00;99.90
7472;DHT22;3777;48.722;8.110;2023-07-16T03:14:31;20.10;99.90
7472;DHT22;3777;48.722;8.110;2023-07-16T03:16:58;20.00;99.90
7472;DHT22;3777;48.722;8.110;2023-07-16T03:19:25;20.10;99.90
7472;DHT22;3777;48.722;8.110;2023-07-16T03:21:52;20.00;99.90
7472;DHT22;3777;48.722;8.110;2023-07-16T03:24:19;20.00;99.90
7472;DHT22;3777;48.722;8.110;2023-07-16T03:26:46;20.10;99.90
7472;DHT22;3777;48.722;8.110;2023-07-16T03:29:13;20.10;99.90
7472;DHT22;3777;48.722;8.110;2023-07-16T03:31:41;20.00;99.90
7472;DHT22;3777;48.722;8.110;2023-07-16T03:34:08;20.00;99.90
7472;DHT22;3777;48.722;8.110;2023-07-16T03:36:35;20.00;99.90
7472;DHT22;3777;48.722;8.110;2023-07-16T03:39:02;20.10;99.90
7472;DHT22;3777;48.722;8.110;2023-07-16T03:41:28;20.10;99.90
7472;DHT22;3777;48.722;8.110;2023-07-16T03:43:55;20.10;99.90
7472;DHT22;3777;48.722;8.110;2023-07-16T03:46:22;19.90;99.90
7472;DHT22;3777;48.722;8.110;2023-07-16T03:48:52;19.90;99.90
7472;DHT22;3777;48.722;8.110;2023-07-16T03:51:19;19.90;99.90
7472;DHT22;3777;48.722;8.110;2023-07-16T03:53:46;20.00;99.90
7472;DHT22;3777;48.722;8.110;2023-07-16T03:56:13;19.90;99.90
7472;DHT22;3777;48.722;8.110;2023-07-16T03:58:40;19.90;99.90
7472;DHT22;3777;48.722;8.110;2023-07-16T04:01:07;19.80;99.90
7472;DHT22;3777;48.722;8.110;2023-07-16T04:03:35;19.80;99.90
7472;DHT22;3777;48.722;8.110;2023-07-16T04:06:04;19.90;99.90
7472;DHT22;3777;48.722;8.110;2023-07-16T04:08:32;20.00;99.90
7472;DHT22;3777;48.722;8.110;2023-07-16T04:11:02;20.00;99.90
7472;DHT22;3777;48.722;8.110;2023-07-16T04:13:29;20.10;99.90
7472;DHT22;3777;48.722;8.110;2023-07-16T04:15:56;20.30;99.90
7472;DHT22;3777;48.722;8.110;2023-07-16T04:18:23;20.40;99.90
7472;DHT22;3777;48.722;8.110;2023-07-16T04:20:51;20.50;99.90
7472;DHT22;3777;48.722;8.110;2023-07-16T04:23:22;20.70;99.90
7472;DHT22;3777;48.722;8.110;2023-07-16T04:25:51;20.80;99.90
7472;DHT22;3777;48.722;8.110;2023-07-16T04:28:19;20.90;99.90
7472;DHT22;3777;48.722;8.110;2023-07-16T04:30:46;21.00;99.90
7472;DHT22;3777;48.722;8.110;2023-07-16T04:33:12;21.00;99.90
7472;DHT22;3777;48.722;8.110;2023-07-16T04:35:39;21.00;99.90
7472;DHT22;3777;48.722;8.110;2023-07-16T04:38:07;21.10;99.90
7472;DHT22;3777;48.722;8.110;2023-07-16T04:40:36;21.10;99.90
7472;DHT22;3777;48.722;8.110;2023-07-16T04:43:03;21.20;99.90
7472;DHT22;3777;48.722;8.110;2023-07-16T04:45:30;21.20;99.90
7472;DHT22;3777;48.722;8.110;2023-07-16T04:47:57;21.20;99.90
7472;DHT22;3777;48.722;8.110;2023-07-16T04:50:24;21.20;99.90
7472;DHT22;3777;48.722;8.110;2023-07-16T04:52:51;21.20;99.90
7472;DHT22;3777;48.722;8.110;2023-07-16T04:55:18;21.20;99.90
7472;DHT22;3777;48.722;8.110;2023-07-16T04:57:46;21.20;99.90
7472;DHT22;3777;48.722;8.110;2023-07-16T05:00:14;21.00;99.90
7472;DHT22;3777;48.722;8.110;2023-07-16T05:02:41;21.10;99.90
7472;DHT22;3777;48.722;8.110;2023-07-16T05:05:08;21.10;99.90
7472;DHT22;3777;48.722;8.110;2023-07-16T05:07:35;21.10;99.90
7472;DHT22;3777;48.722;8.110;2023-07-16T05:10:02;21.00;99.90
7472;DHT22;3777;48.722;8.110;2023-07-16T05:12:29;20.90;99.90
7472;DHT22;3777;48.722;8.110;2023-07-16T05:14:57;20.90;99.90
7472;DHT22;3777;48.722;8.110;2023-07-16T05:17:24;20.90;99.90
7472;DHT22;3777;48.722;8.110;2023-07-16T05:19:52;20.90;99.90
7472;DHT22;3777;48.722;8.110;2023-07-16T05:22:19;21.00;99.90
7472;DHT22;3777;48.722;8.110;2023-07-16T05:24:46;21.10;99.90
7472;DHT22;3777;48.722;8.110;2023-07-16T05:27:12;21.20;99.90
7472;DHT22;3777;48.722;8.110;2023-07-16T05:29:39;21.30;99.90
7472;DHT22;3777;48.722;8.110;2023-07-16T05:32:08;21.30;99.90
7472;DHT22;3777;48.722;8.110;2023-07-16T05:34:35;21.50;99.90
7472;DHT22;3777;48.722;8.110;2023-07-16T05:37:02;21.40;99.90
7472;DHT22;3777;48.722;8.110;2023-07-16T05:39:29;21.50;99.90
7472;DHT22;3777;48.722;8.110;2023-07-16T05:41:56;21.70;99.90
7472;DHT22;3777;48.722;8.110;2023-07-16T05:44:23;21.90;99.90
7472;DHT22;3777;48.722;8.110;2023-07-16T05:46:50;21.90;99.90
7472;DHT22;3777;48.722;8.110;2023-07-16T05:49:18;22.00;99.90
7472;DHT22;3777;48.722;8.110;2023-07-16T05:51:45;22.30;99.90
7472;DHT22;3777;48.722;8.110;2023-07-16T05:54:12;23.00;99.90
7472;DHT22;3777;48.722;8.110;2023-07-16T05:56:39;23.40;99.90
7472;DHT22;3777;48.722;8.110;2023-07-16T05:59:06;23.70;99.90
7472;DHT22;3777;48.722;8.110;2023-07-16T06:01:33;23.90;99.90
7472;DHT22;3777;48.722;8.110;2023-07-16T06:04:00;24.10;99.90
7472;DHT22;3777;48.722;8.110;2023-07-16T06:06:30;24.50;99.90
7472;DHT22;3777;48.722;8.110;2023-07-16T06:08:58;24.40;99.90
7472;DHT22;3777;48.722;8.110;2023-07-16T06:11:25;24.40;99.90
7472;DHT22;3777;48.722;8.110;2023-07-16T06:13:53;24.40;99.90
7472;DHT22;3777;48.722;8.110;2023-07-16T06:16:20;24.50;99.90
7472;DHT22;3777;48.722;8.110;2023-07-16T06:18:47;24.70;99.90
7472;DHT22;3777;48.722;8.110;2023-07-16T06:21:14;24.30;99.90
7472;DHT22;3777;48.722;8.110;2023-07-16T06:23:43;24.30;99.90
7472;DHT22;3777;48.722;8.110;2023-07-16T06:26:10;24.10;99.90
7472;DHT22;3777;48.722;8.110;2023-07-16T06:28:37;24.10;99.90
7472;DHT22;3777;48.722;8.110;2023-07-16T06:31:04;24.20;99.90
7472;DHT22;3777;48.722;8.110;2023-07-16T06:33:31;24.50;99.90
7472;DHT22;3777;48.722;8.110;2023-07-16T06:35:57;24.40;99.90
7472;DHT22;3777;48.722;8.110;2023-07-16T06:38:24;24.80;99.90
7472;DHT22;3777;48.722;8.110;2023-07-16T06:40:54;24.70;99.90
7472;DHT22;3777;48.722;8.110;2023-07-16T06:43:21;25.00;99.90
7472;DHT22;3777;48.722;8.110;2023-07-16T06:45:49;24.80;99.90
7472;DHT22;3777;48.722;8.110;2023-07-16T06:48:16;24.80;99.90
7472;DHT22;3777;48.722;8.110;2023-07-16T06:50:43;24.80;99.90
7472;DHT22;3777;48.722;8.110;2023-07-16T06:53:10;24.30;99.90
7472;DHT22;3777;48.722;8.110;2023-07-16T06:55:37;24.40;99.90
7472;DHT22;3777;48.722;8.110;2023-07-16T06:58:09;24.60;99.90
7472;DHT22;3777;48.722;8.110;2023-07-16T07:00:36;23.90;99.90
7472;DHT22;3777;48.722;8.110;2023-07-16T07:03:03;23.60;99.90
7472;DHT22;3777;48.722;8.110;2023-07-16T07:05:30;23.30;99.90
7472;DHT22;3777;48.722;8.110;2023-07-16T07:07:57;23.20;99.90
7472;DHT22;3777;48.722;8.110;2023-07-16T07:10:24;22.80;99.90
7472;DHT22;3777;48.722;8.110;2023-07-16T07:12:51;22.70;99.90
7472;DHT22;3777;48.722;8.110;2023-07-16T07:15:19;22.50;99.90
7472;DHT22;3777;48.722;8.110;2023-07-16T07:17:46;22.30;99.90
7472;DHT22;3777;48.722;8.110;2023-07-16T07:20:14;22.50;99.90
7472;DHT22;3777;48.722;8.110;2023-07-16T07:22:41;22.70;99.90
7472;DHT22;3777;48.722;8.110;2023-07-16T07:25:08;23.20;99.90
7472;DHT22;3777;48.722;8.110;2023-07-16T07:27:35;23.50;99.90
7472;DHT22;3777;48.722;8.110;2023-07-16T07:30:02;23.30;99.90
7472;DHT22;3777;48.722;8.110;2023-07-16T07:32:30;23.50;99.90
7472;DHT22;3777;48.722;8.110;2023-07-16T07:34:57;23.70;99.90
7472;DHT22;3777;48.722;8.110;2023-07-16T07:37:24;23.60;99.90
7472;DHT22;3777;48.722;8.110;2023-07-16T07:39:52;24.10;99.90
7472;DHT22;3777;48.722;8.110;2023-07-16T07:42:19;24.50;99.90
7472;DHT22;3777;48.722;8.110;2023-07-16T07:44:46;25.00;99.90
7472;DHT22;3777;48.722;8.110;2023-07-16T07:47:13;25.30;99.90
7472;DHT22;3777;48.722;8.110;2023-07-16T07:49:41;25.20;99.90
7472;DHT22;3777;48.722;8.110;2023-07-16T07:52:08;25.60;99.90
7472;DHT22;3777;48.722;8.110;2023-07-16T07:54:35;25.70;99.90
7472;DHT22;3777;48.722;8.110;2023-07-16T07:57:03;25.50;99.90
7472;DHT22;3777;48.722;8.110;2023-07-16T07:59:30;25.40;99.90
7472;DHT22;3777;48.722;8.110;2023-07-16T08:01:58;25.60;99.90
7472;DHT22;3777;48.722;8.110;2023-07-16T08:04:27;25.50;99.90
7472;DHT22;3777;48.722;8.110;2023-07-16T08:06:55;25.70;99.90
7472;DHT22;3777;48.722;8.110;2023-07-16T08:09:22;25.60;99.90
7472;DHT22;3777;48.722;8.110;2023-07-16T08:11:49;25.70;99.90
7472;DHT22;3777;48.722;8.110;2023-07-16T08:14:16;26.10;99.90
7472;DHT22;3777;48.722;8.110;2023-07-16T08:16:43;26.60;99.90
7472;DHT22;3777;48.722;8.110;2023-07-16T08:19:10;26.80;99.90
7472;DHT22;3777;48.722;8.110;2023-07-16T08:21:37;27.30;99.90
7472;DHT22;3777;48.722;8.110;2023-07-16T08:24:06;27.60;99.90
7472;DHT22;3777;48.722;8.110;2023-07-16T08:26:33;28.10;99.90
7472;DHT22;3777;48.722;8.110;2023-07-16T08:29:00;28.50;99.90
7472;DHT22;3777;48.722;8.110;2023-07-16T08:31:28;28.60;99.90
7472;DHT22;3777;48.722;8.110;2023-07-16T08:33:55;28.50;99.90
7472;DHT22;3777;48.722;8.110;2023-07-16T08:36:22;27.80;99.90
7472;DHT22;3777;48.722;8.110;2023-07-16T08:38:49;27.80;99.90
7472;DHT22;3777;48.722;8.110;2023-07-16T08:41:17;28.50;99.90
7472;DHT22;3777;48.722;8.110;2023-07-16T08:43:46;29.00;99.90
7472;DHT22;3777;48.722;8.110;2023-07-16T08:46:14;30.50;99.90
7472;DHT22;3777;48.722;8.110;2023-07-16T08:48:42;31.30;99.90
7472;DHT22;3777;48.722;8.110;2023-07-16T08:51:10;30.90;97.30
7472;DHT22;3777;48.722;8.110;2023-07-16T08:53:37;31.00;97.30
7472;DHT22;3777;48.722;8.110;2023-07-16T08:56:04;30.70;95.10
7472;DHT22;3777;48.722;8.110;2023-07-16T08:58:33;31.60;96.90
7472;DHT22;3777;48.722;8.110;2023-07-16T09:01:00;33.10;96.50
7472;DHT22;3777;48.722;8.110;2023-07-16T09:03:27;32.90;91.20
7472;DHT22;3777;48.722;8.110;2023-07-16T09:05:55;32.70;90.60
7472;DHT22;3777;48.722;8.110;2023-07-16T09:08:22;31.10;91.10
7472;DHT22;3777;48.722;8.110;2023-07-16T09:10:54;31.00;91.10
7472;DHT22;3777;48.722;8.110;2023-07-16T09:13:21;31.00;94.00
7472;DHT22;3777;48.722;8.110;2023-07-16T09:15:54;30.80;91.80
7472;DHT22;3777;48.722;8.110;2023-07-16T09:18:21;31.00;92.30
7472;DHT22;3777;48.722;8.110;2023-07-16T09:20:49;31.70;92.70
7472;DHT22;3777;48.722;8.110;2023-07-16T09:23:20;31.80;93.20
7472;DHT22;3777;48.722;8.110;2023-07-16T09:25:49;32.20;92.90
7472;DHT22;3777;48.722;8.110;2023-07-16T09:28:18;33.20;91.00
7472;DHT22;3777;48.722;8.110;2023-07-16T09:30:46;33.20;87.50
7472;DHT22;3777;48.722;8.110;2023-07-16T09:33:15;33.20;86.50
7472;DHT22;3777;48.722;8.110;2023-07-16T09:35:43;33.90;86.40
7472;DHT22;3777;48.722;8.110;2023-07-16T09:38:10;34.40;81.60
7472;DHT22;3777;48.722;8.110;2023-07-16T09:40:37;34.10;79.00
7472;DHT22;3777;48.722;8.110;2023-07-16T09:43:08;33.50;75.80
7472;DHT22;3777;48.722;8.110;2023-07-16T09:45:35;33.20;78.50
7472;DHT22;3777;48.722;8.110;2023-07-16T09:48:03;32.00;80.40
7472;DHT22;3777;48.722;8.110;2023-07-16T09:50:33;31.60;81.50
7472;DHT22;3777;48.722;8.110;2023-07-16T09:53:01;31.50;79.90
7472;DHT22;3777;48.722;8.110;2023-07-16T09:55:31;31.50;81.80
7472;DHT22;3777;48.722;8.110;2023-07-16T09:58:01;31.40;82.70
7472;DHT22;3777;48.722;8.110;2023-07-16T10:00:29;31.50;83.00
7472;DHT22;3777;48.722;8.110;2023-07-16T10:02:57;31.40;78.00
7472;DHT22;3777;48.722;8.110;2023-07-16T10:05:25;31.60;79.30
7472;DHT22;3777;48.722;8.110;2023-07-16T10:07:56;32.60;80.10
7472;DHT22;3777;48.722;8.110;2023-07-16T10:10:29;33.00;74.70
7472;DHT22;3777;48.722;8.110;2023-07-16T10:13:04;32.90;77.70
7472;DHT22;3777;48.722;8.110;2023-07-16T10:15:31;32.90;75.60
7472;DHT22;3777;48.722;8.110;2023-07-16T10:17:58;32.50;74.40
7472;DHT22;3777;48.722;8.110;2023-07-16T10:20:32;32.00;75.20
7472;DHT22;3777;48.722;8.110;2023-07-16T10:23:10;32.60;74.40
7472;DHT22;3777;48.722;8.110;2023-07-16T10:25:38;32.80;73.60
7472;DHT22;3777;48.722;8.110;2023-07-16T10:28:05;32.90;73.30
7472;DHT22;3777;48.722;8.110;2023-07-16T10:30:33;32.60;68.10
7472;DHT22;3777;48.722;8.110;2023-07-16T10:33:03;32.20;74.80
7472;DHT22;3777;48.722;8.110;2023-07-16T10:35:34;32.20;77.20
7472;DHT22;3777;48.722;8.110;2023-07-16T10:38:04;32.20;72.90
7472;DHT22;3777;48.722;8.110;2023-07-16T10:40:31;31.90;69.80
7472;DHT22;3777;48.722;8.110;2023-07-16T10:42:58;32.00;69.70
7472;DHT22;3777;48.722;8.110;2023-07-16T10:45:25;32.20;68.90
7472;DHT22;3777;48.722;8.110;2023-07-16T10:47:53;32.20;69.50
7472;DHT22;3777;48.722;8.110;2023-07-16T10:50:20;32.20;66.50
7472;DHT22;3777;48.722;8.110;2023-07-16T10:52:51;31.60;67.90
7472;DHT22;3777;48.722;8.110;2023-07-16T10:55:21;31.70;69.10
7472;DHT22;3777;48.722;8.110;2023-07-16T10:57:48;31.70;70.00
7472;DHT22;3777;48.722;8.110;2023-07-16T11:00:16;31.50;69.30
7472;DHT22;3777;48.722;8.110;2023-07-16T11:02:43;31.50;66.60
7472;DHT22;3777;48.722;8.110;2023-07-16T11:05:12;32.10;66.30
7472;DHT22;3777;48.722;8.110;2023-07-16T11:07:43;32.00;65.50
7472;DHT22;3777;48.722;8.110;2023-07-16T11:10:10;32.00;69.70
7472;DHT22;3777;48.722;8.110;2023-07-16T11:12:38;31.90;69.10
7472;DHT22;3777;48.722;8.110;2023-07-16T11:15:06;31.60;66.80
7472;DHT22;3777;48.722;8.110;2023-07-16T11:17:33;31.30;69.30
7472;DHT22;3777;48.722;8.110;2023-07-16T11:20:01;31.20;72.80
7472;DHT22;3777;48.722;8.110;2023-07-16T11:22:29;31.20;69.30
7472;DHT22;3777;48.722;8.110;2023-07-16T11:24:57;31.00;69.70
7472;DHT22;3777;48.722;8.110;2023-07-16T11:27:26;30.90;73.30
7472;DHT22;3777;48.722;8.110;2023-07-16T11:29:56;30.60;72.30
7472;DHT22;3777;48.722;8.110;2023-07-16T11:32:28;30.30;72.00
7472;DHT22;3777;48.722;8.110;2023-07-16T11:34:56;30.30;71.40
7472;DHT22;3777;48.722;8.110;2023-07-16T11:37:25;29.80;74.40
7472;DHT22;3777;48.722;8.110;2023-07-16T11:39:55;29.40;76.60
7472;DHT22;3777;48.722;8.110;2023-07-16T11:42:28;29.60;75.50
7472;DHT22;3777;48.722;8.110;2023-07-16T11:44:57;29.70;77.80
7472;DHT22;3777;48.722;8.110;2023-07-16T11:47:25;29.80;76.40
7472;DHT22;3777;48.722;8.110;2023-07-16T11:49:52;29.70;75.00
7472;DHT22;3777;48.722;8.110;2023-07-16T11:52:20;29.70;74.30
7472;DHT22;3777;48.722;8.110;2023-07-16T11:54:48;29.60;71.00
7472;DHT22;3777;48.722;8.110;2023-07-16T11:57:15;29.80;75.10
7472;DHT22;3777;48.722;8.110;2023-07-16T11:59:42;30.00;70.90
7472;DHT22;3777;48.722;8.110;2023-07-16T12:02:11;30.10;73.30
7472;DHT22;3777;48.722;8.110;2023-07-16T12:04:38;30.10;75.60
7472;DHT22;3777;48.722;8.110;2023-07-16T12:07:05;30.30;78.50
7472;DHT22;3777;48.722;8.110;2023-07-16T12:09:32;30.30;72.40
7472;DHT22;3777;48.722;8.110;2023-07-16T12:11:59;30.40;73.40
7472;DHT22;3777;48.722;8.110;2023-07-16T12:14:27;30.30;75.30
7472;DHT22;3777;48.722;8.110;2023-07-16T12:16:54;30.40;67.50
7472;DHT22;3777;48.722;8.110;2023-07-16T12:19:23;30.50;67.70
7472;DHT22;3777;48.722;8.110;2023-07-16T12:21:52;30.40;66.70
7472;DHT22;3777;48.722;8.110;2023-07-16T12:24:19;30.20;68.30
7472;DHT22;3777;48.722;8.110;2023-07-16T12:26:46;30.30;69.50
7472;DHT22;3777;48.722;8.110;2023-07-16T12:29:13;30.20;72.10
7472;DHT22;3777;48.722;8.110;2023-07-16T12:31:40;30.00;68.90
7472;DHT22;3777;48.722;8.110;2023-07-16T12:34:07;30.00;72.70
7472;DHT22;3777;48.722;8.110;2023-07-16T12:36:35;29.90;68.70
7472;DHT22;3777;48.722;8.110;2023-07-16T12:39:02;29.90;68.20
7472;DHT22;3777;48.722;8.110;2023-07-16T12:41:29;30.00;68.20
7472;DHT22;3777;48.722;8.110;2023-07-16T12:43:56;29.70;67.90
7472;DHT22;3777;48.722;8.110;2023-07-16T12:46:23;29.70;67.70
7472;DHT22;3777;48.722;8.110;2023-07-16T12:48:50;29.90;72.30
7472;DHT22;3777;48.722;8.110;2023-07-16T12:51:17;29.90;70.80
7472;DHT22;3777;48.722;8.110;2023-07-16T12:53:45;30.10;71.40
7472;DHT22;3777;48.722;8.110;2023-07-16T12:56:12;30.30;68.20
7472;DHT22;3777;48.722;8.110;2023-07-16T12:58:39;30.40;70.10
7472;DHT22;3777;48.722;8.110;2023-07-16T13:01:06;30.40;66.20
7472;DHT22;3777;48.722;8.110;2023-07-16T13:03:33;30.50;69.90
7472;DHT22;3777;48.722;8.110;2023-07-16T13:06:00;30.40;68.60
7472;DHT22;3777;48.722;8.110;2023-07-16T13:08:29;30.50;67.00
7472;DHT22;3777;48.722;8.110;2023-07-16T13:10:57;30.40;67.20
7472;DHT22;3777;48.722;8.110;2023-07-16T13:13:25;30.30;69.60
7472;DHT22;3777;48.722;8.110;2023-07-16T13:15:53;30.10;69.50
7472;DHT22;3777;48.722;8.110;2023-07-16T13:18:20;30.00;67.70
7472;DHT22;3777;48.722;8.110;2023-07-16T13:20:47;29.90;69.00
7472;DHT22;3777;48.722;8.110;2023-07-16T13:23:14;29.80;71.50
7472;DHT22;3777;48.722;8.110;2023-07-16T13:25:41;29.70;72.70
7472;DHT22;3777;48.722;8.110;2023-07-16T13:28:09;29.40;68.20
7472;DHT22;3777;48.722;8.110;2023-07-16T13:30:36;29.00;70.70
7472;DHT22;3777;48.722;8.110;2023-07-16T13:33:04;28.90;70.90
7472;DHT22;3777;48.722;8.110;2023-07-16T13:35:31;28.80;72.70
7472;DHT22;3777;48.722;8.110;2023-07-16T13:37:58;28.60;71.80
7472;DHT22;3777;48.722;8.110;2023-07-16T13:40:24;28.20;66.10
7472;DHT22;3777;48.722;8.110;2023-07-16T13:42:51;28.20;71.50
7472;DHT22;3777;48.722;8.110;2023-07-16T13:45:20;28.40;72.60
7472;DHT22;3777;48.722;8.110;2023-07-16T13:47:48;28.50;70.90
7472;DHT22;3777;48.722;8.110;2023-07-16T13:50:17;28.10;70.20
7472;DHT22;3777;48.722;8.110;2023-07-16T13:52:44;27.60;70.90
7472;DHT22;3777;48.722;8.110;2023-07-16T13:55:11;27.20;75.10
7472;DHT22;3777;48.722;8.110;2023-07-16T13:57:38;27.10;71.70
7472;DHT22;3777;48.722;8.110;2023-07-16T14:00:06;26.90;73.60
7472;DHT22;3777;48.722;8.110;2023-07-16T14:02:36;27.20;75.30
7472;DHT22;3777;48.722;8.110;2023-07-16T14:05:04;27.40;71.40
7472;DHT22;3777;48.722;8.110;2023-07-16T14:07:31;27.30;72.20
7472;DHT22;3777;48.722;8.110;2023-07-16T14:09:58;27.20;73.10
7472;DHT22;3777;48.722;8.110;2023-07-16T14:12:26;27.60;76.60
7472;DHT22;3777;48.722;8.110;2023-07-16T14:14:53;27.90;72.00
7472;DHT22;3777;48.722;8.110;2023-07-16T14:17:20;28.00;73.10
7472;DHT22;3777;48.722;8.110;2023-07-16T14:19:49;28.00;75.90
7472;DHT22;3777;48.722;8.110;2023-07-16T14:22:16;28.00;74.50
7472;DHT22;3777;48.722;8.110;2023-07-16T14:24:43;27.90;72.10
7472;DHT22;3777;48.722;8.110;2023-07-16T14:27:10;27.50;71.60
7472;DHT22;3777;48.722;8.110;2023-07-16T14:29:38;27.20;73.30
7472;DHT22;3777;48.722;8.110;2023-07-16T14:32:05;27.60;75.40
7472;DHT22;3777;48.722;8.110;2023-07-16T14:34:32;28.00;77.00
7472;DHT22;3777;48.722;8.110;2023-07-16T14:37:01;28.10;72.90
7472;DHT22;3777;48.722;8.110;2023-07-16T14:39:29;28.30;76.90
7472;DHT22;3777;48.722;8.110;2023-07-16T14:41:56;28.00;75.20
7472;DHT22;3777;48.722;8.110;2023-07-16T14:44:23;28.30;75.30
7472;DHT22;3777;48.722;8.110;2023-07-16T14:46:50;28.20;74.10
7472;DHT22;3777;48.722;8.110;2023-07-16T14:49:16;28.20;72.50
7472;DHT22;3777;48.722;8.110;2023-07-16T14:51:43;28.10;71.70
7472;DHT22;3777;48.722;8.110;2023-07-16T14:54:12;28.10;74.00
7472;DHT22;3777;48.722;8.110;2023-07-16T14:56:39;28.30;74.80
7472;DHT22;3777;48.722;8.110;2023-07-16T14:59:06;28.40;72.20
7472;DHT22;3777;48.722;8.110;2023-07-16T15:01:33;28.20;78.60
7472;DHT22;3777;48.722;8.110;2023-07-16T15:03:59;28.40;74.60
7472;DHT22;3777;48.722;8.110;2023-07-16T15:06:26;28.50;73.70
7472;DHT22;3777;48.722;8.110;2023-07-16T15:08:53;28.50;75.10
7472;DHT22;3777;48.722;8.110;2023-07-16T15:11:22;28.50;73.80
7472;DHT22;3777;48.722;8.110;2023-07-16T15:13:49;28.40;79.20
7472;DHT22;3777;48.722;8.110;2023-07-16T15:16:15;28.30;77.50
7472;DHT22;3777;48.722;8.110;2023-07-16T15:18:42;28.30;75.10
7472;DHT22;3777;48.722;8.110;2023-07-16T15:21:10;28.20;71.30
7472;DHT22;3777;48.722;8.110;2023-07-16T15:23:37;28.10;75.50
7472;DHT22;3777;48.722;8.110;2023-07-16T15:26:05;28.10;73.80
7472;DHT22;3777;48.722;8.110;2023-07-16T15:28:38;28.10;75.10
7472;DHT22;3777;48.722;8.110;2023-07-16T15:31:07;28.20;73.50
7472;DHT22;3777;48.722;8.110;2023-07-16T15:33:34;28.10;72.30
7472;DHT22;3777;48.722;8.110;2023-07-16T15:36:01;27.80;73.30
7472;DHT22;3777;48.722;8.110;2023-07-16T15:38:29;27.90;75.10
7472;DHT22;3777;48.722;8.110;2023-07-16T15:40:56;28.10;72.80
7472;DHT22;3777;48.722;8.110;2023-07-16T15:43:24;28.40;76.00
7472;DHT22;3777;48.722;8.110;2023-07-16T15:45:52;28.70;73.60
7472;DHT22;3777;48.722;8.110;2023-07-16T15:48:19;28.30;73.70
7472;DHT22;3777;48.722;8.110;2023-07-16T15:50:46;28.30;73.00
7472;DHT22;3777;48.722;8.110;2023-07-16T15:53:13;28.10;74.60
7472;DHT22;3777;48.722;8.110;2023-07-16T15:55:40;28.30;75.90
7472;DHT22;3777;48.722;8.110;2023-07-16T15:58:07;28.60;75.50
7472;DHT22;3777;48.722;8.110;2023-07-16T16:00:34;28.70;74.60
7472;DHT22;3777;48.722;8.110;2023-07-16T16:03:03;28.70;74.80
7472;DHT22;3777;48.722;8.110;2023-07-16T16:05:30;28.80;76.50